Time;durP1;ratioP1;P1;durP2;ratioP2;P2;SDS_P1;SDS_P2;PMS_P1;PMS_P2;Temp;Humidity;BMP_temperature;BMP_pressure;BME280_temperature;BME280_humidity;BME280_pressure;Samples;Min_cycle;Max_cycle;Signal;HPM_P1;HPM_P2
2022/02/07 00:00:40;;;;;;;2.88;0.50;;;3.00;66.40;;;;;;7388413;19;20026;-59
2022/02/07 00:03:16;;;;;;;0.60;0.30;;;3.00;66.50;;;;;;7364056;19;20010;-59
2022/02/07 00:05:47;;;;;;;2.67;0.50;;;3.10;66.30;;;;;;7361475;19;20447;-59
2022/02/07 00:08:17;;;;;;;0.85;0.60;;;3.20;66.90;;;;;;7365090;19;20007;-59
2022/02/07 00:10:47;;;;;;;0.98;0.55;;;3.20;62.70;;;;;;7367568;19;20043;-61
2022/02/07 00:13:25;;;;;;;1.33;0.50;;;3.20;59.70;;;;;;7356563;19;20047;-60
2022/02/07 00:15:55;;;;;;;2.92;0.47;;;3.40;56.90;;;;;;7363236;19;20430;-59
2022/02/07 00:18:29;;;;;;;1.13;0.50;;;3.50;51.00;;;;;;7388441;19;20074;-59
2022/02/07 00:20:59;;;;;;;2.80;0.50;;;3.70;44.10;;;;;;7361641;19;20355;-59
2022/02/07 00:23:29;;;;;;;0.35;0.30;;;3.60;44.50;;;;;;7357869;19;20499;-58
2022/02/07 00:26:02;;;;;;;1.33;0.30;;;3.70;42.40;;;;;;7366412;19;20013;-60
2022/02/07 00:28:39;;;;;;;0.77;0.40;;;3.80;41.20;;;;;;7363487;19;20499;-61
2022/02/07 00:31:18;;;;;;;0.95;0.45;;;3.70;42.40;;;;;;7365377;19;20019;-59
2022/02/07 00:33:53;;;;;;;0.98;0.20;;;3.70;41.30;;;;;;7382741;19;20092;-60
2022/02/07 00:36:23;;;;;;;0.75;0.35;;;3.80;39.10;;;;;;7361524;19;20022;-59
2022/02/07 00:38:58;;;;;;;1.20;0.40;;;3.80;41.20;;;;;;7362748;19;20013;-62
2022/02/07 00:41:37;;;;;;;1.95;0.32;;;3.70;38.30;;;;;;7367176;19;20040;-58
2022/02/07 00:44:18;;;;;;;1.02;0.30;;;3.80;35.40;;;;;;7359695;19;20010;-60
2022/02/07 00:46:52;;;;;;;1.35;0.35;;;3.70;34.10;;;;;;7362850;19;20091;-60
2022/02/07 00:49:28;;;;;;;0.50;0.20;;;3.70;32.80;;;;;;7364263;19;20007;-60
2022/02/07 00:51:58;;;;;;;0.85;0.30;;;3.70;33.00;;;;;;7367771;19;20017;-60
2022/02/07 00:54:28;;;;;;;1.65;0.40;;;3.60;32.80;;;;;;7378925;19;20010;-60
2022/02/07 00:57:10;;;;;;;1.42;0.40;;;3.60;36.80;;;;;;7363985;19;20013;-61
2022/02/07 00:59:42;;;;;;;1.58;0.50;;;3.60;39.10;;;;;;7363632;19;20105;-59
2022/02/07 01:02:12;;;;;;;0.40;0.22;;;3.60;41.00;;;;;;7365116;19;20466;-60
2022/02/07 01:04:42;;;;;;;0.60;0.30;;;3.60;41.00;;;;;;7358933;19;20014;-60
2022/02/07 01:07:12;;;;;;;0.20;0.20;;;3.60;41.30;;;;;;7365394;19;20480;-60
2022/02/07 01:09:46;;;;;;;2.28;0.38;;;3.60;40.00;;;;;;7383806;19;20487;-60
2022/02/07 01:12:22;;;;;;;0.77;0.30;;;3.60;38.00;;;;;;7364841;19;20014;-60
2022/02/07 01:15:02;;;;;;;0.75;0.30;;;3.60;36.60;;;;;;7358718;19;20105;-60
2022/02/07 01:23:32;;;;;;;0.53;0.20;;;3.70;36.20;;;;;;7356816;19;20086;-60
2022/02/07 01:48:17;;;;;;;0.63;0.20;;;3.90;32.50;;;;;;7360504;19;20081;-60
2022/02/07 01:53:44;;;;;;;0.45;0.28;;;3.90;31.70;;;;;;7356966;19;20101;-60
2022/02/07 01:56:14;;;;;;;2.90;0.70;;;3.90;29.10;;;;;;7363786;19;20009;-60
2022/02/07 01:58:44;;;;;;;0.93;0.20;;;3.90;31.00;;;;;;7362056;19;20516;-60
2022/02/07 02:01:14;;;;;;;1.80;0.70;;;3.90;31.00;;;;;;7362376;19;20486;-60
2022/02/07 02:03:46;;;;;;;1.88;0.35;;;3.90;30.00;;;;;;7380632;19;20021;-60
2022/02/07 02:06:17;;;;;;;1.65;0.38;;;4.00;29.30;;;;;;7360391;19;19999;-60
2022/02/07 02:08:47;;;;;;;1.33;0.30;;;4.00;25.70;;;;;;7360229;19;20009;-60
2022/02/07 02:11:17;;;;;;;1.27;0.50;;;4.10;23.00;;;;;;7361926;19;20024;-60
2022/02/07 02:14:08;;;;;;;1.30;0.40;;;4.10;25.80;;;;;;7353374;19;20014;-60
2022/02/07 02:16:50;;;;;;;0.55;0.30;;;4.00;25.80;;;;;;7360165;19;20021;-60
2022/02/07 02:19:50;;;;;;;0.90;0.70;;;4.00;24.60;;;;;;7360439;19;20010;-60
2022/02/07 02:36:24;;;;;;;1.38;0.70;;;4.00;18.70;;;;;;7358208;19;20011;-60
2022/02/07 02:45:26;;;;;;;2.22;0.55;;;4.00;18.90;;;;;;7361476;19;20010;-60
2022/02/07 02:47:24;;;;;;;3.05;0.63;;;4.00;17.80;;;;;;7361493;19;20100;-60
2022/02/07 02:50:06;;;;;;;3.13;0.80;;;3.90;18.50;;;;;;7361116;19;20517;-61
2022/02/07 02:52:36;;;;;;;1.63;0.50;;;3.70;22.20;;;;;;7364734;19;20093;-60
2022/02/07 02:55:09;;;;;;;2.45;0.70;;;3.30;26.20;;;;;;7352267;19;20018;-60
2022/02/07 02:57:39;;;;;;;1.60;0.60;;;2.90;31.70;;;;;;7385822;19;20441;-60
2022/02/07 03:00:11;;;;;;;2.25;0.50;;;2.70;36.50;;;;;;7369076;19;20503;-60
2022/02/07 03:02:41;;;;;;;4.13;0.90;;;2.60;36.90;;;;;;7366910;19;20003;-60
2022/02/07 03:05:11;;;;;;;1.00;0.57;;;2.60;35.50;;;;;;7360643;19;20006;-60
2022/02/07 03:07:41;;;;;;;2.03;0.60;;;2.60;35.80;;;;;;7368235;19;20010;-60
2022/02/07 03:10:23;;;;;;;1.10;0.80;;;2.60;36.00;;;;;;7366551;19;20528;-60
2022/02/07 03:13:02;;;;;;;2.20;1.00;;;2.60;37.80;;;;;;7367831;19;20394;-60
2022/02/07 03:18:14;;;;;;;3.50;0.80;;;2.60;40.20;;;;;;7367843;19;20017;-60
2022/02/07 03:20:44;;;;;;;3.58;0.93;;;2.70;40.30;;;;;;7366520;19;20073;-60
2022/02/07 03:23:14;;;;;;;1.77;0.60;;;2.70;41.00;;;;;;7362571;19;20013;-60
2022/02/07 03:25:46;;;;;;;2.00;0.85;;;2.70;41.40;;;;;;7365133;19;20048;-60
2022/02/07 03:28:16;;;;;;;4.25;1.00;;;2.60;41.80;;;;;;7367707;19;20046;-60
2022/02/07 03:30:46;;;;;;;3.90;0.60;;;2.50;41.60;;;;;;7391534;19;20033;-60
2022/02/07 03:33:17;;;;;;;1.20;0.65;;;2.20;41.30;;;;;;7362185;19;20035;-59
2022/02/07 03:35:47;;;;;;;0.70;0.45;;;2.00;41.90;;;;;;7359198;19;20459;-59
2022/02/07 03:38:16;;;;;;;2.00;0.52;;;1.90;43.70;;;;;;7367441;19;20023;-59
2022/02/07 03:40:49;;;;;;;0.40;0.30;;;1.80;43.00;;;;;;7366922;19;20011;-59
2022/02/07 03:43:19;;;;;;;2.13;0.70;;;1.60;43.40;;;;;;7362020;19;20014;-59
2022/02/07 03:45:49;;;;;;;2.00;0.60;;;1.60;44.80;;;;;;7383125;19;20083;-61
2022/02/07 03:48:19;;;;;;;3.40;0.60;;;1.60;42.90;;;;;;7387186;19;20011;-59
2022/02/07 03:50:48;;;;;;;3.17;0.40;;;1.70;42.10;;;;;;7367153;19;20489;-60
2022/02/07 03:53:19;;;;;;;1.17;0.50;;;1.80;40.40;;;;;;7363601;19;20014;-59
2022/02/07 03:55:51;;;;;;;1.00;0.60;;;1.80;38.40;;;;;;7363794;19;20084;-60
2022/02/07 03:58:21;;;;;;;1.35;0.50;;;1.90;38.70;;;;;;7367796;19;20016;-59
2022/02/07 04:00:54;;;;;;;1.20;0.43;;;2.00;35.80;;;;;;7390472;19;20030;-60
2022/02/07 04:03:27;;;;;;;0.93;0.38;;;1.90;37.50;;;;;;7355284;19;21522;-60
2022/02/07 04:06:00;;;;;;;1.50;0.60;;;1.90;38.20;;;;;;7389269;19;20794;-60
2022/02/07 04:08:34;;;;;;;1.63;0.80;;;1.90;38.00;;;;;;7366377;19;20009;-60
2022/02/07 04:11:14;;;;;;;1.75;0.68;;;1.80;37.80;;;;;;7364377;19;20003;-59
2022/02/07 04:13:49;;;;;;;2.53;0.80;;;1.90;39.50;;;;;;7359698;19;20010;-59
2022/02/07 04:16:19;;;;;;;;;;;1.80;39.10;;;;;;7368886;19;20021;-59
2022/02/07 04:18:56;;;;;;;2.17;0.57;;;1.90;37.20;;;;;;7386446;19;19924;-60
2022/02/07 04:21:29;;;;;;;2.90;0.90;;;1.80;37.50;;;;;;7365554;19;20006;-60
2022/02/07 04:23:59;;;;;;;1.65;0.90;;;1.80;36.70;;;;;;7359367;19;20505;-60
2022/02/07 04:26:32;;;;;;;4.13;0.90;;;1.70;36.60;;;;;;7366204;19;20006;-60
2022/02/07 04:29:01;;;;;;;2.88;0.85;;;1.70;36.50;;;;;;7366174;19;20017;-59
2022/02/07 04:31:36;;;;;;;;;;;1.70;36.40;;;;;;7368432;19;20007;-60
2022/02/07 04:34:06;;;;;;;1.27;0.60;;;1.80;35.60;;;;;;7358454;19;19919;-59
2022/02/07 04:36:37;;;;;;;1.67;0.50;;;1.80;35.00;;;;;;7385459;19;20029;-59
2022/02/07 04:39:07;;;;;;;2.00;0.93;;;1.80;33.50;;;;;;7365045;19;20006;-61
2022/02/07 04:41:42;;;;;;;5.35;0.80;;;1.80;33.50;;;;;;7366339;19;20070;-61
2022/02/07 04:44:20;;;;;;;2.53;0.70;;;1.80;32.00;;;;;;7359434;19;20006;-61
2022/02/07 04:47:02;;;;;;;0.90;0.38;;;1.80;31.90;;;;;;7366499;19;20030;-59
2022/02/07 04:50:00;;;;;;;2.65;0.60;;;1.80;32.40;;;;;;7365823;19;20014;-59
2022/02/07 04:52:54;;;;;;;1.13;0.70;;;1.80;31.20;;;;;;7365710;19;20021;-59
2022/02/07 04:55:36;;;;;;;3.10;0.68;;;1.70;31.10;;;;;;7359687;19;20006;-60
2022/02/07 04:58:15;;;;;;;1.88;0.55;;;1.70;32.80;;;;;;7366475;19;20019;-60
2022/02/07 05:00:52;;;;;;;2.60;0.63;;;1.70;33.00;;;;;;7386214;19;20367;-59
2022/02/07 05:03:27;;;;;;;4.13;0.75;;;1.60;31.50;;;;;;7357998;19;20018;-59
2022/02/07 05:14:08;;;;;;;5.63;1.10;;;1.70;30.80;;;;;;7357971;19;20010;-59
2022/02/07 05:16:39;;;;;;;6.35;0.80;;;1.70;31.00;;;;;;7365841;19;20485;-59
2022/02/07 05:19:09;;;;;;;4.22;0.90;;;1.70;30.00;;;;;;7364382;19;20018;-59
2022/02/07 05:21:40;;;;;;;4.10;1.10;;;1.70;28.90;;;;;;7384968;19;20016;-59
2022/02/07 05:24:10;;;;;;;5.50;0.90;;;1.70;29.40;;;;;;7358901;19;20025;-59
2022/02/07 05:26:40;;;;;;;4.22;0.88;;;1.80;28.10;;;;;;7363609;19;20016;-59
2022/02/07 05:29:13;;;;;;;3.30;1.10;;;1.80;28.40;;;;;;7363876;19;20017;-59
2022/02/07 05:31:43;;;;;;;3.67;1.42;;;1.90;27.30;;;;;;7366449;19;20011;-61
2022/02/07 05:34:12;;;;;;;6.65;1.23;;;2.00;26.50;;;;;;7357457;19;20073;-61
2022/02/07 05:36:45;;;;;;;8.35;1.52;;;2.00;26.60;;;;;;7383452;19;20018;-61
2022/02/07 05:39:18;;;;;;;5.25;1.23;;;2.00;26.10;;;;;;7364520;19;20482;-60
2022/02/07 05:41:48;;;;;;;6.13;1.42;;;2.00;26.60;;;;;;7363603;19;20011;-60
2022/02/07 05:44:21;;;;;;;6.13;1.25;;;2.00;24.70;;;;;;7358181;19;20010;-59
2022/02/07 05:46:51;;;;;;;3.95;1.30;;;1.90;26.80;;;;;;7364493;19;20185;-59
2022/02/07 05:49:22;;;;;;;5.40;1.20;;;1.90;27.40;;;;;;7362742;19;20042;-59
2022/02/07 05:51:54;;;;;;;4.55;1.25;;;1.90;27.80;;;;;;7383881;19;20073;-59
2022/02/07 05:54:24;;;;;;;5.35;1.00;;;1.90;27.80;;;;;;7358775;19;20078;-60
2022/02/07 05:56:54;;;;;;;7.13;1.35;;;1.80;27.70;;;;;;7362437;19;20326;-59
2022/02/07 05:59:26;;;;;;;5.63;1.38;;;1.90;26.80;;;;;;7361917;19;20103;-59
2022/02/07 06:01:56;;;;;;;5.57;1.30;;;2.00;26.70;;;;;;7364493;19;20011;-59
2022/02/07 06:04:26;;;;;;;3.30;1.35;;;2.10;25.50;;;;;;7354628;19;20021;-59
2022/02/07 06:06:56;;;;;;;4.80;1.30;;;2.10;25.80;;;;;;7361532;19;20014;-60
2022/02/07 06:09:26;;;;;;;5.63;1.30;;;2.10;25.50;;;;;;7384990;19;20013;-59
2022/02/07 06:11:56;;;;;;;5.03;1.58;;;2.10;26.20;;;;;;7361617;19;20010;-59
2022/02/07 06:14:29;;;;;;;4.88;0.93;;;2.10;26.10;;;;;;7354754;19;21491;-60
2022/02/07 06:16:58;;;;;;;5.22;1.40;;;2.20;24.60;;;;;;7363404;19;20014;-60
2022/02/07 06:19:32;;;;;;;2.53;0.90;;;2.20;25.40;;;;;;7361028;19;20081;-60
2022/02/07 06:22:02;;;;;;;2.65;1.20;;;2.20;24.70;;;;;;7361504;19;20348;-60
2022/02/07 06:24:32;;;;;;;4.88;1.15;;;2.20;24.70;;;;;;7377422;19;20127;-60
2022/02/07 06:27:02;;;;;;;4.22;1.00;;;2.30;25.60;;;;;;7359484;19;20009;-60
2022/02/07 06:29:35;;;;;;;4.97;1.63;;;2.30;24.70;;;;;;7361203;19;20003;-60
2022/02/07 06:32:06;;;;;;;4.10;1.20;;;2.30;23.90;;;;;;7362517;19;20558;-60
2022/02/07 06:34:36;;;;;;;4.68;1.33;;;2.30;24.70;;;;;;7359538;19;20002;-59
2022/02/07 06:37:09;;;;;;;3.50;1.10;;;2.20;24.60;;;;;;7367215;19;20066;-59
2022/02/07 06:39:39;;;;;;;8.25;1.70;;;2.20;26.30;;;;;;7390112;19;20039;-60
2022/02/07 06:42:09;;;;;;;4.60;1.08;;;2.10;26.50;;;;;;7365971;19;20021;-60
2022/02/07 06:44:42;;;;;;;7.55;1.20;;;2.20;26.30;;;;;;7361151;19;20006;-60
2022/02/07 06:47:12;;;;;;;5.43;1.00;;;2.20;27.10;;;;;;7369243;19;20014;-60
2022/02/07 06:49:42;;;;;;;3.88;1.23;;;2.20;25.70;;;;;;7367403;19;20014;-60
2022/02/07 06:52:12;;;;;;;7.63;1.73;;;2.30;26.30;;;;;;7366981;19;20010;-60
2022/02/07 06:54:42;;;;;;;5.20;1.30;;;2.30;26.50;;;;;;7385072;19;20015;-60
2022/02/07 06:57:13;;;;;;;4.45;1.65;;;2.40;26.60;;;;;;7365498;19;20840;-60
2022/02/07 06:59:47;;;;;;;2.42;1.50;;;2.40;26.80;;;;;;7367005;19;20546;-58
2022/02/07 07:02:19;;;;;;;2.58;1.20;;;2.40;26.10;;;;;;7370102;19;20370;-60
2022/02/07 07:04:50;;;;;;;6.15;1.50;;;2.50;25.00;;;;;;7360701;19;20346;-60
2022/02/07 07:07:20;;;;;;;5.65;1.40;;;2.40;25.80;;;;;;7368021;19;20007;-59
2022/02/07 07:09:50;;;;;;;3.55;1.40;;;2.50;23.30;;;;;;7389532;19;20014;-59
2022/02/07 07:12:20;;;;;;;6.65;1.60;;;2.50;23.90;;;;;;7365537;19;20527;-59
2022/02/07 07:15:04;;;;;;;3.90;1.20;;;2.50;23.70;;;;;;7360482;19;20074;-59
2022/02/07 07:17:34;;;;;;;3.83;1.70;;;2.50;22.80;;;;;;7368216;19;20007;-61
2022/02/07 07:20:05;;;;;;;3.80;1.67;;;2.50;22.20;;;;;;7366038;19;20032;-60
2022/02/07 07:22:35;;;;;;;4.43;1.33;;;2.40;23.20;;;;;;7367242;19;20379;-60
2022/02/07 07:25:08;;;;;;;7.25;1.80;;;2.40;23.70;;;;;;7358903;19;20479;-60
2022/02/07 07:27:54;;;;;;;10.80;1.60;;;2.40;22.80;;;;;;7388969;19;20010;-59
2022/02/07 07:30:29;;;;;;;6.55;1.50;;;2.40;23.10;;;;;;7364920;19;20011;-59
2022/02/07 07:33:03;;;;;;;5.78;1.95;;;2.40;24.20;;;;;;7366489;19;20011;-60
2022/02/07 07:35:33;;;;;;;4.72;1.40;;;2.40;23.60;;;;;;7363906;19;20023;-60
2022/02/07 07:38:03;;;;;;;7.80;1.80;;;2.50;23.30;;;;;;7365385;19;20090;-59
2022/02/07 07:40:33;;;;;;;9.35;1.63;;;2.50;23.10;;;;;;7368321;19;20002;-59
2022/02/07 07:43:05;;;;;;;7.20;2.22;;;2.50;22.90;;;;;;7365980;19;20354;-59
2022/02/07 07:45:47;;;;;;;5.55;1.58;;;2.50;23.00;;;;;;7383587;19;20017;-59
2022/02/07 07:48:22;;;;;;;7.65;1.77;;;2.50;22.00;;;;;;7365969;19;20023;-60
2022/02/07 07:50:57;;;;;;;11.00;1.92;;;2.60;22.60;;;;;;7367532;19;20006;-59
2022/02/07 07:53:43;;;;;;;4.22;1.48;;;2.70;22.60;;;;;;7359538;19;20656;-59
2022/02/07 08:01:46;;;;;;;7.10;2.05;;;2.70;18.10;;;;;;7366959;19;20097;-59
2022/02/07 08:04:20;;;;;;;3.92;1.38;;;2.70;18.10;;;;;;7358626;19;20798;-59
2022/02/07 08:06:51;;;;;;;7.45;1.70;;;2.60;17.30;;;;;;7386715;19;20018;-60
2022/02/07 08:09:43;;;;;;;8.63;1.77;;;2.70;18.10;;;;;;7366106;19;20508;-58
2022/02/07 08:12:14;;;;;;;8.70;1.95;;;2.70;16.20;;;;;;7364125;19;20534;-58
2022/02/07 08:14:45;;;;;;;3.47;1.13;;;2.80;16.10;;;;;;7359846;19;20077;-59
2022/02/07 08:17:33;;;;;;;5.25;1.60;;;2.80;15.00;;;;;;7367443;19;20497;-58
2022/02/07 08:20:03;;;;;;;4.88;1.50;;;3.00;15.80;;;;;;7365464;19;20016;-59
2022/02/07 08:22:32;;;;;;;6.93;1.75;;;3.00;15.40;;;;;;7365140;19;20007;-59
2022/02/07 08:25:02;;;;;;;9.45;1.88;;;3.00;14.00;;;;;;7359491;19;20018;-59
2022/02/07 08:27:33;;;;;;;5.95;1.73;;;3.00;14.00;;;;;;7386594;19;20037;-59
2022/02/07 08:30:03;;;;;;;5.57;1.48;;;3.00;14.80;;;;;;7363519;19;20015;-59
2022/02/07 08:32:35;;;;;;;6.60;1.63;;;3.10;14.60;;;;;;7366860;19;20028;-59
2022/02/07 08:35:08;;;;;;;7.35;1.48;;;3.10;14.90;;;;;;7357631;19;20458;-60
2022/02/07 08:37:38;;;;;;;6.03;1.80;;;3.10;14.60;;;;;;7365492;19;20078;-60
2022/02/07 08:40:09;;;;;;;7.00;2.00;;;3.20;14.00;;;;;;7366854;19;20014;-59
2022/02/07 08:42:40;;;;;;;5.95;1.63;;;3.30;13.70;;;;;;7386489;19;20350;-58
2022/02/07 08:45:12;;;;;;;4.43;1.60;;;3.40;14.10;;;;;;7351298;19;20365;-58
2022/02/07 08:47:45;;;;;;;5.32;1.50;;;3.50;11.90;;;;;;7360872;19;20166;-58
2022/02/07 08:50:15;;;;;;;4.05;1.13;;;3.70;12.20;;;;;;7359347;19;20034;-58
2022/02/07 08:52:49;;;;;;;4.15;1.23;;;3.80;11.90;;;;;;7365128;19;20712;-59
2022/02/07 08:55:26;;;;;;;4.15;1.30;;;3.90;11.60;;;;;;7357685;19;20007;-59
2022/02/07 08:58:05;;;;;;;6.18;1.70;;;3.90;9.80;;;;;;7364096;19;20332;-60
2022/02/07 09:00:46;;;;;;;10.63;2.10;;;3.80;11.50;;;;;;7384085;19;20014;-58
2022/02/07 09:06:15;;;;;;;6.70;1.55;;;3.70;10.50;;;;;;7359061;19;20402;-60
2022/02/07 09:09:07;;;;;;;6.68;1.95;;;3.80;11.40;;;;;;7361767;19;20019;-60
2022/02/07 09:11:38;;;;;;;5.60;1.70;;;3.90;11.20;;;;;;7362906;19;20010;-60
2022/02/07 09:14:14;;;;;;;7.00;1.88;;;3.80;11.30;;;;;;7359288;19;20006;-58
2022/02/07 09:16:43;;;;;;;4.90;1.55;;;3.80;10.10;;;;;;7362836;19;20003;-58
2022/02/07 09:19:19;;;;;;;5.95;1.88;;;3.90;10.30;;;;;;7363433;19;20025;-60
2022/02/07 09:21:50;;;;;;;6.45;1.80;;;4.00;8.50;;;;;;7387516;19;20014;-60
2022/02/07 09:24:20;;;;;;;6.97;1.60;;;4.10;9.10;;;;;;7355453;19;20017;-58
2022/02/07 09:26:50;;;;;;;6.90;2.00;;;4.30;8.60;;;;;;7360079;19;20041;-59
2022/02/07 09:29:21;;;;;;;5.55;2.15;;;4.30;9.00;;;;;;7363523;19;20493;-59
2022/02/07 09:31:51;;;;;;;3.90;1.33;;;4.30;8.50;;;;;;7361431;19;20013;-59
2022/02/07 09:34:24;;;;;;;4.93;1.67;;;4.20;7.00;;;;;;7349983;19;20011;-59
2022/02/07 09:36:53;;;;;;;5.00;1.75;;;4.20;6.20;;;;;;7382776;19;20367;-59
2022/02/07 09:39:30;;;;;;;5.05;1.55;;;4.40;6.60;;;;;;7360032;19;20018;-59
2022/02/07 09:42:03;;;;;;;5.90;1.50;;;4.40;7.00;;;;;;7358547;19;20035;-59
2022/02/07 09:44:42;;;;;;;6.85;1.90;;;4.50;6.10;;;;;;7356174;19;20006;-59
2022/02/07 09:47:15;;;;;;;4.03;1.30;;;4.50;7.80;;;;;;7359594;19;20017;-59
2022/02/07 09:49:48;;;;;;;4.72;1.60;;;4.30;5.10;;;;;;7358885;19;20079;-59
2022/02/07 09:52:18;;;;;;;9.18;2.33;;;4.30;6.10;;;;;;7362576;19;20010;-59
2022/02/07 09:54:48;;;;;;;5.57;1.70;;;4.30;5.00;;;;;;7376820;19;20015;-59
2022/02/07 09:57:20;;;;;;;5.95;2.72;;;4.30;5.80;;;;;;7359871;19;20011;-59
2022/02/07 09:59:52;;;;;;;6.32;1.67;;;4.50;5.30;;;;;;7361143;19;20010;-59
2022/02/07 10:02:29;;;;;;;6.15;1.85;;;4.70;4.20;;;;;;7361311;19;20115;-59
2022/02/07 10:05:06;;;;;;;4.65;1.60;;;4.70;5.20;;;;;;7351202;19;20398;-59
2022/02/07 10:07:48;;;;;;;6.32;1.50;;;4.80;1.80;;;;;;7362607;19;20017;-59
2022/02/07 10:10:26;;;;;;;6.97;1.55;;;4.80;2.80;;;;;;7369863;19;20018;-60
2022/02/07 10:13:15;;;;;;;6.68;1.80;;;4.90;3.20;;;;;;7364212;19;20015;-61
2022/02/07 10:15:51;;;;;;;9.60;1.75;;;4.80;2.60;;;;;;7386799;19;20508;-59
2022/02/07 10:18:36;;;;;;;4.68;1.65;;;4.70;1.00;;;;;;7368478;19;20010;-60
2022/02/07 10:35:15;;;;;;;7.43;1.58;;;4.90;1.00;;;;;;7359531;19;20249;-60
2022/02/07 10:38:03;;;;;;;8.57;1.90;;;4.80;1.00;;;;;;7369521;19;20529;-59
2022/02/07 10:40:37;;;;;;;3.47;1.60;;;4.80;1.00;;;;;;7370452;19;20015;-59
2022/02/07 10:43:46;;;;;;;4.15;1.42;;;5.00;1.00;;;;;;7362381;19;20489;-59
2022/02/07 10:46:18;;;;;;;7.95;1.98;;;4.90;1.00;;;;;;7366301;19;20014;-61
2022/02/07 10:48:51;;;;;;;7.75;1.60;;;5.00;1.00;;;;;;7391489;19;20473;-59
2022/02/07 10:51:23;;;;;;;4.97;1.77;;;5.10;1.00;;;;;;7367474;19;20467;-60
2022/02/07 10:53:57;;;;;;;7.82;1.80;;;4.90;1.00;;;;;;7359024;19;20066;-60
2022/02/07 10:56:35;;;;;;;5.07;1.83;;;5.00;1.00;;;;;;7366774;19;20502;-60
2022/02/07 10:59:08;;;;;;;6.65;1.77;;;5.10;1.00;;;;;;7369231;19;20482;-60
2022/02/07 11:04:37;;;;;;;9.45;2.15;;;5.30;1.00;;;;;;7360348;19;20069;-59
2022/02/07 11:07:10;;;;;;;8.05;2.15;;;5.20;1.00;;;;;;7368332;19;20006;-59
2022/02/07 11:09:56;;;;;;;9.20;1.70;;;5.00;1.00;;;;;;7387792;19;20379;-59
2022/02/07 11:12:56;;;;;;;5.90;1.30;;;5.10;1.00;;;;;;7365449;19;20011;-59
2022/02/07 11:15:32;;;;;;;6.95;1.70;;;5.10;1.00;;;;;;7362590;19;20082;-60
2022/02/07 11:18:11;;;;;;;5.55;1.52;;;4.90;1.00;;;;;;7366754;19;20782;-59
2022/02/07 11:20:57;;;;;;;5.68;1.42;;;5.00;1.00;;;;;;7365204;19;20025;-59
2022/02/07 11:23:44;;;;;;;7.35;2.30;;;4.90;1.00;;;;;;7359900;19;20007;-59
2022/02/07 11:26:39;;;;;;;6.45;1.30;;;4.80;1.00;;;;;;7365716;19;20584;-59
2022/02/07 11:29:39;;;;;;;5.10;1.35;;;4.90;1.00;;;;;;7366462;19;20546;-60
2022/02/07 11:32:29;;;;;;;9.18;2.40;;;4.80;1.00;;;;;;7368279;19;20094;-59
2022/02/07 11:35:05;;;;;;;5.22;1.40;;;4.90;1.00;;;;;;7359389;19;20082;-60
2022/02/07 11:37:35;;;;;;;6.93;2.15;;;4.80;1.00;;;;;;7368592;19;20014;-60
2022/02/07 11:40:27;;;;;;;6.30;1.63;;;4.90;1.00;;;;;;7364530;19;20019;-60
2022/02/07 11:43:14;;;;;;;6.38;2.15;;;4.90;1.00;;;;;;7362406;19;20013;-59
2022/02/07 11:45:55;;;;;;;7.65;2.10;;;5.00;1.00;;;;;;7384615;19;20002;-59
2022/02/07 11:48:37;;;;;;;13.27;3.33;;;4.90;1.00;;;;;;7365533;19;20014;-59
2022/02/07 11:51:13;;;;;;;9.88;2.25;;;4.90;1.00;;;;;;7366023;19;20054;-59
2022/02/07 11:53:48;;;;;;;10.68;2.17;;;5.00;1.00;;;;;;7359328;19;20052;-61
2022/02/07 11:56:25;;;;;;;6.05;2.20;;;4.90;1.00;;;;;;7364328;19;20534;-60
2022/02/07 11:59:18;;;;;;;8.00;2.08;;;5.00;1.00;;;;;;7367428;19;20022;-60
2022/02/07 12:02:16;;;;;;;8.55;2.13;;;5.00;1.00;;;;;;7362937;19;20073;-59
2022/02/07 12:04:51;;;;;;;5.05;1.73;;;5.00;1.00;;;;;;7361025;19;20025;-61
2022/02/07 12:07:37;;;;;;;4.40;1.58;;;5.00;1.00;;;;;;7362394;19;20085;-60
2022/02/07 12:10:26;;;;;;;5.65;2.00;;;5.00;1.00;;;;;;7364669;19;20010;-61
2022/02/07 12:13:01;;;;;;;14.45;2.28;;;5.00;1.00;;;;;;7363074;19;20466;-60
2022/02/07 12:15:36;;;;;;;;;;;5.10;1.00;;;;;;7386614;19;20031;-59
2022/02/07 12:18:21;;;;;;;6.03;2.22;;;5.20;1.00;;;;;;7363480;19;20204;-60
2022/02/07 12:20:52;;;;;;;;;;;5.30;1.00;;;;;;7365183;19;20037;-61
2022/02/07 12:23:23;;;;;;;5.55;1.40;;;5.30;1.00;;;;;;7359724;19;19914;-60
2022/02/07 12:25:57;;;;;;;9.18;1.70;;;5.30;1.00;;;;;;7366310;19;20014;-61
2022/02/07 12:28:34;;;;;;;7.28;1.77;;;5.20;1.00;;;;;;7361983;19;20126;-60
2022/02/07 12:31:17;;;;;;;9.50;2.22;;;5.30;1.00;;;;;;7363799;19;20019;-60
2022/02/07 12:33:54;;;;;;;6.18;1.63;;;5.40;1.00;;;;;;7382625;19;20358;-60
2022/02/07 12:36:25;;;;;;;11.60;1.75;;;5.40;1.00;;;;;;7362175;19;20014;-61
2022/02/07 12:38:57;;;;;;;5.43;1.23;;;5.50;1.00;;;;;;7363140;19;20011;-60
2022/02/07 12:41:29;;;;;;;5.93;1.77;;;5.60;1.00;;;;;;7365385;19;20467;-60
2022/02/07 12:43:59;;;;;;;6.65;1.67;;;5.40;1.00;;;;;;7359573;19;20007;-60
2022/02/07 12:46:33;;;;;;;6.97;1.92;;;5.60;1.00;;;;;;7359500;19;20074;-60
2022/02/07 12:49:10;;;;;;;;;;;5.40;1.00;;;;;;7366016;19;20017;-61
2022/02/07 12:51:46;;;;;;;7.90;2.25;;;5.40;1.00;;;;;;7385853;19;20342;-60
2022/02/07 12:54:20;;;;;;;5.75;2.17;;;5.50;1.00;;;;;;7356995;19;20075;-61
2022/02/07 12:56:50;;;;;;;9.98;2.10;;;5.60;1.00;;;;;;7363666;19;20055;-61
2022/02/07 12:59:20;;;;;;;6.68;1.67;;;5.60;1.00;;;;;;7365954;19;20369;-60
2022/02/07 13:01:55;;;;;;;7.22;2.28;;;5.50;1.00;;;;;;7364055;19;20082;-61
2022/02/07 13:04:26;;;;;;;4.28;1.67;;;5.50;1.00;;;;;;7360008;19;20006;-61
2022/02/07 13:07:03;;;;;;;7.20;2.53;;;5.40;1.00;;;;;;7363954;19;20043;-59
2022/02/07 13:09:42;;;;;;;7.07;1.50;;;5.50;1.00;;;;;;7384908;19;20355;-60
2022/02/07 13:12:21;;;;;;;6.93;2.05;;;5.50;1.00;;;;;;7362596;19;20383;-61
2022/02/07 13:14:53;;;;;;;8.25;2.10;;;5.70;1.00;;;;;;7358701;19;20068;-61
2022/02/07 13:17:28;;;;;;;5.28;1.60;;;5.60;1.00;;;;;;7361673;19;20021;-60
2022/02/07 13:19:58;;;;;;;11.23;2.45;;;5.70;1.00;;;;;;7362292;19;20002;-60
2022/02/07 13:22:33;;;;;;;6.40;1.98;;;5.70;1.00;;;;;;7362666;19;20014;-60
2022/02/07 13:25:04;;;;;;;6.47;1.73;;;5.70;1.00;;;;;;7356514;19;20471;-60
2022/02/07 13:27:40;;;;;;;11.85;1.90;;;5.70;1.00;;;;;;7382571;19;20021;-60
2022/02/07 13:30:11;;;;;;;;;;;5.70;1.00;;;;;;7362815;19;20062;-60
2022/02/07 13:32:44;;;;;;;9.23;2.13;;;5.80;1.00;;;;;;7361440;19;19922;-60
2022/02/07 13:35:16;;;;;;;7.88;2.20;;;5.70;1.00;;;;;;7358318;19;20007;-60
2022/02/07 13:37:48;;;;;;;6.35;2.08;;;5.60;1.00;;;;;;7359336;19;20010;-59
2022/02/07 13:40:21;;;;;;;10.57;1.95;;;5.60;1.00;;;;;;7365419;19;20010;-61
2022/02/07 13:42:54;;;;;;;7.03;1.73;;;5.40;1.00;;;;;;7383254;19;20021;-59
2022/02/07 13:45:28;;;;;;;5.38;1.95;;;5.40;1.00;;;;;;7356965;19;20002;-59
2022/02/07 13:48:02;;;;;;;8.05;2.03;;;5.50;1.00;;;;;;7359022;19;20118;-62
2022/02/07 13:50:35;;;;;;;8.23;2.10;;;5.60;1.00;;;;;;7362309;19;20379;-61
2022/02/07 13:53:07;;;;;;;8.40;1.85;;;5.40;1.00;;;;;;7357190;19;20010;-60
2022/02/07 13:55:39;;;;;;;5.70;1.88;;;5.40;1.00;;;;;;7360716;19;20007;-60
2022/02/07 13:58:11;;;;;;;5.80;1.55;;;5.40;1.00;;;;;;7358877;19;20192;-61
2022/02/07 14:00:43;;;;;;;8.18;1.70;;;5.50;1.00;;;;;;7380499;19;20102;-61
2022/02/07 14:03:24;;;;;;;5.70;1.70;;;5.50;1.00;;;;;;7354630;19;20014;-60
2022/02/07 14:05:55;;;;;;;6.15;1.88;;;5.50;1.00;;;;;;7360038;19;20014;-60
2022/02/07 14:08:33;;;;;;;5.70;1.85;;;5.60;1.00;;;;;;7357163;19;20014;-60
2022/02/07 14:11:08;;;;;;;7.82;1.75;;;5.60;1.00;;;;;;7362274;19;20017;-59
2022/02/07 14:13:38;;;;;;;;;;;5.60;1.00;;;;;;7356984;19;20017;-60
2022/02/07 14:16:10;;;;;;;4.38;1.35;;;5.50;1.00;;;;;;7360596;19;20401;-61
2022/02/07 14:18:45;;;;;;;4.90;1.50;;;5.50;1.00;;;;;;7380684;19;20026;-60
2022/02/07 14:21:17;;;;;;;6.50;1.88;;;5.60;1.00;;;;;;7362302;19;20475;-62
2022/02/07 14:23:50;;;;;;;9.15;2.00;;;5.40;1.00;;;;;;7355748;19;20081;-61
2022/02/07 14:26:40;;;;;;;6.60;1.45;;;5.50;1.00;;;;;;7355812;19;20018;-59
2022/02/07 14:29:11;;;;;;;6.75;1.52;;;5.40;1.00;;;;;;7359225;19;20029;-60
2022/02/07 14:31:41;;;;;;;8.18;2.17;;;5.40;1.00;;;;;;7358855;19;20021;-60
2022/02/07 14:34:13;;;;;;;5.05;1.60;;;5.40;1.00;;;;;;7349619;19;20430;-60
2022/02/07 14:36:43;;;;;;;7.40;1.65;;;5.40;1.00;;;;;;7382413;19;20094;-59
2022/02/07 14:39:13;;;;;;;5.45;1.65;;;5.50;1.00;;;;;;7360323;19;20513;-60
2022/02/07 14:41:46;;;;;;;2.05;1.25;;;5.50;1.00;;;;;;7361683;19;19999;-60
2022/02/07 14:44:21;;;;;;;8.77;1.73;;;5.40;1.00;;;;;;7356818;19;20340;-60
2022/02/07 14:47:02;;;;;;;6.82;1.85;;;5.40;1.00;;;;;;7361273;19;20028;-62
2022/02/07 14:49:34;;;;;;;5.75;2.13;;;5.40;1.00;;;;;;7359000;19;20012;-60
2022/02/07 14:52:05;;;;;;;4.57;1.45;;;5.40;1.00;;;;;;7361886;19;20016;-61
2022/02/07 14:54:35;;;;;;;7.50;2.03;;;5.30;1.00;;;;;;7381496;19;20479;-60
2022/02/07 14:57:05;;;;;;;3.75;1.58;;;5.30;1.00;;;;;;7364981;19;20010;-60
2022/02/07 14:59:35;;;;;;;9.98;1.58;;;5.30;1.00;;;;;;7367695;19;20043;-60
2022/02/07 15:02:06;;;;;;;8.68;1.90;;;5.40;1.00;;;;;;7368027;19;20013;-60
2022/02/07 15:04:39;;;;;;;8.05;1.98;;;5.40;1.00;;;;;;7360307;19;20007;-60
2022/02/07 15:07:09;;;;;;;7.22;2.63;;;5.30;1.00;;;;;;7366973;19;20014;-60